Terminal Aerodrome Forecast
Issued by NWS

Home | Current Version | Previous Version | Text Only | Print | Product List | Glossary On
Versions: 1 2 3 4 5 6 7 8 9 10 11 12 13
000
FTUS45 KLKN 270527
TAFEKO
TAF
KEKO 270527Z 2706/2806 20008KT 5SM -SN BR SCT020 OVC030
      TEMPO 2706/2710 3/4SM -SN BR FEW005 BKN010
     FM271800 27015G27KT 6SM -SHSN FEW020 BKN040
     FM280300 VRB06KT P6SM VCSH FEW050 SCT150=

USA.gov is the U.S. government's official web portal to all federal, state and local government web resources and services.